createdAt,value
2019-02-23T00:00:14.033Z,4.80
2019-02-23T00:02:42.615Z,4.80
2019-02-23T00:05:11.250Z,4.80
2019-02-23T00:07:39.857Z,4.70
2019-02-23T00:10:08.724Z,4.70
2019-02-23T00:12:37.313Z,4.70
2019-02-23T00:15:07.097Z,4.80
2019-02-23T00:17:35.684Z,4.70
2019-02-23T00:20:06.486Z,4.70
2019-02-23T00:22:35.444Z,4.70
2019-02-23T00:25:04.072Z,4.70
2019-02-23T00:27:32.730Z,4.80
2019-02-23T00:30:01.420Z,4.80
2019-02-23T00:32:29.973Z,4.90
2019-02-23T00:34:58.555Z,5.00
2019-02-23T00:37:27.107Z,5.00
2019-02-23T00:39:55.688Z,5.00
2019-02-23T00:42:24.834Z,5.00
2019-02-23T00:44:53.408Z,4.90
2019-02-23T00:47:22.033Z,4.90
2019-02-23T00:49:51.092Z,5.00
2019-02-23T00:52:19.665Z,5.00
2019-02-23T00:54:48.220Z,4.90
2019-02-23T00:57:16.904Z,4.90
2019-02-23T00:59:45.456Z,4.80
2019-02-23T01:02:14.073Z,4.80
2019-02-23T01:04:42.624Z,4.90
2019-02-23T01:07:11.564Z,4.80
2019-02-23T01:09:40.119Z,4.70
2019-02-23T01:12:08.785Z,4.70
2019-02-23T01:14:37.652Z,4.70
2019-02-23T01:17:06.205Z,4.70
2019-02-23T01:19:34.781Z,4.70
2019-02-23T01:22:03.348Z,4.60
2019-02-23T01:24:32.002Z,4.50
2019-02-23T01:27:00.628Z,4.50
2019-02-23T01:29:29.208Z,4.40
2019-02-23T01:31:58.120Z,4.30
2019-02-23T01:34:26.775Z,4.20
2019-02-23T01:36:55.328Z,4.10
2019-02-23T01:39:23.943Z,4.00
2019-02-23T01:41:52.573Z,3.90
2019-02-23T01:44:21.181Z,3.90
2019-02-23T01:46:50.616Z,3.90
2019-02-23T01:49:19.258Z,3.80
2019-02-23T01:51:48.156Z,3.80
2019-02-23T01:54:16.711Z,3.80
2019-02-23T01:56:45.396Z,3.80
2019-02-23T01:59:13.952Z,3.80
2019-02-23T02:01:43.176Z,3.80
2019-02-23T02:04:11.797Z,3.80
2019-02-23T02:06:40.795Z,3.80
2019-02-23T02:09:10.109Z,3.80
2019-02-23T02:11:38.777Z,3.90
2019-02-23T02:14:07.400Z,3.90
2019-02-23T02:16:36.144Z,3.90
2019-02-23T02:19:04.789Z,3.90
2019-02-23T02:21:33.720Z,3.90
2019-02-23T02:24:02.344Z,3.90
2019-02-23T02:26:30.904Z,3.90
2019-02-23T02:28:59.484Z,3.90
2019-02-23T02:31:30.677Z,3.90
2019-02-23T02:34:10.556Z,3.90
2019-02-23T02:36:39.194Z,3.90
2019-02-23T02:39:12.102Z,4.00
2019-02-23T02:41:40.903Z,4.10
2019-02-23T02:44:09.566Z,4.10
2019-02-23T02:46:38.144Z,4.10
2019-02-23T02:49:06.844Z,4.00
2019-02-23T02:51:35.408Z,4.00
2019-02-23T02:54:04.063Z,4.00
2019-02-23T02:56:32.684Z,4.00
2019-02-23T02:59:01.333Z,4.00
2019-02-23T03:01:29.910Z,4.00
2019-02-23T03:03:58.540Z,4.00
2019-02-23T03:06:27.108Z,4.00
2019-02-23T03:08:55.682Z,4.10
2019-02-23T03:11:24.345Z,4.00
2019-02-23T03:13:53.312Z,3.90
2019-02-23T03:16:21.893Z,3.80
2019-02-23T03:18:50.444Z,3.70
2019-02-23T03:21:19.020Z,3.50
2019-02-23T03:23:48.075Z,3.50
2019-02-23T03:26:16.714Z,3.40
2019-02-23T03:28:45.636Z,3.40
2019-02-23T03:31:14.236Z,3.40
2019-02-23T03:33:42.799Z,3.40
2019-02-23T03:36:11.359Z,3.30
2019-02-23T03:38:39.936Z,3.20
2019-02-23T03:41:08.664Z,3.10
2019-02-23T03:43:37.314Z,3.10
2019-02-23T03:46:05.868Z,3.10
2019-02-23T03:48:34.448Z,3.10
2019-02-23T03:51:03.007Z,2.90
2019-02-23T03:53:31.609Z,2.90
2019-02-23T03:56:00.167Z,2.90
2019-02-23T03:58:28.729Z,2.90
2019-02-23T04:00:57.305Z,2.80
2019-02-23T04:03:25.863Z,2.80
2019-02-23T04:05:54.436Z,2.80
2019-02-23T04:08:23.055Z,2.70
2019-02-23T04:10:51.631Z,2.70
2019-02-23T04:13:20.251Z,2.70
2019-02-23T04:15:48.877Z,2.70
2019-02-23T04:18:17.436Z,2.70
2019-02-23T04:20:46.016Z,2.70
2019-02-23T04:23:14.921Z,2.70
2019-02-23T04:25:43.500Z,2.70
2019-02-23T04:28:12.055Z,2.70
2019-02-23T04:30:40.637Z,2.70
2019-02-23T04:33:09.221Z,2.70
2019-02-23T04:35:37.762Z,2.70
2019-02-23T04:38:06.337Z,2.60
2019-02-23T04:40:35.189Z,2.60
2019-02-23T04:43:03.780Z,2.50
2019-02-23T04:45:32.405Z,2.50
2019-02-23T04:48:00.980Z,2.50
2019-02-23T04:50:29.562Z,2.40
2019-02-23T04:52:58.123Z,2.40
2019-02-23T04:55:26.755Z,2.40
2019-02-23T04:57:55.318Z,2.40
2019-02-23T05:00:23.946Z,2.30
2019-02-23T05:02:52.613Z,2.20
2019-02-23T05:05:21.167Z,2.20
2019-02-23T05:07:49.845Z,2.20
2019-02-23T05:10:18.403Z,2.10
2019-02-23T05:12:46.957Z,2.10
2019-02-23T05:15:15.652Z,2.10
2019-02-23T05:17:44.205Z,2.10
2019-02-23T05:20:12.785Z,2.10
2019-02-23T05:22:41.347Z,2.10
2019-02-23T05:25:09.985Z,2.10
2019-02-23T05:27:38.539Z,2.10
2019-02-23T05:30:10.325Z,2.10
2019-02-23T05:32:38.872Z,2.10
2019-02-23T05:35:10.418Z,2.10
2019-02-23T05:37:38.994Z,2.10
2019-02-23T05:40:10.532Z,1.90
2019-02-23T05:42:39.108Z,1.80
2019-02-23T05:45:09.904Z,1.70
2019-02-23T05:47:38.865Z,1.70
2019-02-23T05:50:09.267Z,1.60
2019-02-23T05:52:37.849Z,1.50
2019-02-23T05:55:06.748Z,1.40
2019-02-23T05:57:35.257Z,1.40
2019-02-23T06:00:04.763Z,1.30
2019-02-23T06:02:33.316Z,1.30
2019-02-23T06:05:01.943Z,1.20
2019-02-23T06:07:30.505Z,1.20
2019-02-23T06:09:59.061Z,1.20
2019-02-23T06:12:27.645Z,1.20
2019-02-23T06:14:56.220Z,1.20
2019-02-23T06:17:25.052Z,1.20
2019-02-23T06:19:53.932Z,1.20
2019-02-23T06:22:22.497Z,1.10
2019-02-23T06:24:51.073Z,1.10
2019-02-23T06:27:20.229Z,1.10
2019-02-23T06:29:49.207Z,1.10
2019-02-23T06:32:17.757Z,1.10
2019-02-23T06:34:46.400Z,1.10
2019-02-23T06:37:14.965Z,1.10
2019-02-23T06:39:43.516Z,1.10
2019-02-23T06:42:12.100Z,1.10
2019-02-23T06:44:40.664Z,1.30
2019-02-23T06:47:09.236Z,1.70
2019-02-23T06:49:38.205Z,2.10
2019-02-23T06:52:08.324Z,2.60
2019-02-23T06:54:36.904Z,2.70
2019-02-23T06:57:05.506Z,2.90
2019-02-23T06:59:34.067Z,3.20
2019-02-23T07:02:02.656Z,3.20
2019-02-23T07:04:31.214Z,3.60
2019-02-23T07:06:59.812Z,3.60
2019-02-23T07:09:28.436Z,3.60
2019-02-23T07:11:56.992Z,4.10
2019-02-23T07:14:25.569Z,4.60
2019-02-23T07:16:54.127Z,5.20
2019-02-23T07:19:22.705Z,5.70
2019-02-23T07:21:51.259Z,5.40
2019-02-23T07:24:19.853Z,5.40
2019-02-23T07:26:48.421Z,5.40
2019-02-23T07:29:17.010Z,5.30
2019-02-23T07:31:45.564Z,5.10
2019-02-23T07:34:14.536Z,5.20
2019-02-23T07:36:43.101Z,5.70
2019-02-23T07:39:11.666Z,5.70
2019-02-23T07:41:40.243Z,5.90
2019-02-23T07:44:08.800Z,5.90
2019-02-23T07:46:37.735Z,6.20
2019-02-23T07:49:06.305Z,5.90
2019-02-23T07:51:34.880Z,6.30
2019-02-23T07:54:03.437Z,6.10
2019-02-23T07:56:32.098Z,5.70
2019-02-23T07:59:00.656Z,5.90
2019-02-23T08:01:29.810Z,6.50
2019-02-23T08:03:58.356Z,6.60
2019-02-23T08:06:27.019Z,7.20
2019-02-23T08:08:55.576Z,7.80
2019-02-23T08:11:24.225Z,8.00
2019-02-23T08:13:53.189Z,8.30
2019-02-23T08:16:21.919Z,9.10
2019-02-23T08:18:50.564Z,9.40
2019-02-23T08:21:19.385Z,9.40
2019-02-23T08:23:47.975Z,9.50
2019-02-23T08:26:16.532Z,10.20
2019-02-23T08:28:45.116Z,10.50
2019-02-23T08:31:13.686Z,10.10
2019-02-23T08:33:42.291Z,10.40
2019-02-23T08:36:10.870Z,10.90
2019-02-23T08:38:39.420Z,11.00
2019-02-23T08:41:08.008Z,10.60
2019-02-23T08:43:36.573Z,10.90
2019-02-23T08:46:05.148Z,11.00
2019-02-23T08:48:33.716Z,11.40
2019-02-23T08:51:02.294Z,11.80
2019-02-23T08:53:31.303Z,11.90
2019-02-23T08:55:59.848Z,11.70
2019-02-23T08:58:28.408Z,12.00
2019-02-23T09:00:57.007Z,12.60
2019-02-23T09:03:25.691Z,13.60
2019-02-23T09:05:54.608Z,14.00
2019-02-23T09:08:23.228Z,14.30
2019-02-23T09:10:51.784Z,14.80
2019-02-23T09:13:20.652Z,14.40
2019-02-23T09:15:49.199Z,14.60
2019-02-23T09:18:17.794Z,14.20
2019-02-23T09:20:46.369Z,13.90
2019-02-23T09:23:14.964Z,12.80
2019-02-23T09:25:43.633Z,12.30
2019-02-23T09:28:12.262Z,12.40
2019-02-23T09:30:40.883Z,12.60
2019-02-23T09:33:09.421Z,13.10
2019-02-23T09:35:38.100Z,14.10
2019-02-23T09:38:06.743Z,14.30
2019-02-23T09:40:35.319Z,15.60
2019-02-23T09:43:03.879Z,17.00
2019-02-23T09:45:32.452Z,15.80
2019-02-23T09:48:01.010Z,14.90
2019-02-23T09:50:29.592Z,13.50
2019-02-23T09:52:58.540Z,13.20
2019-02-23T09:55:27.117Z,14.00
2019-02-23T09:57:55.683Z,14.30
2019-02-23T10:00:24.333Z,14.80
2019-02-23T10:02:52.881Z,14.20
2019-02-23T10:05:21.450Z,13.70
2019-02-23T10:07:50.095Z,13.60
2019-02-23T10:10:18.653Z,12.80
2019-02-23T10:12:47.242Z,12.80
2019-02-23T10:15:15.800Z,12.90
2019-02-23T10:17:44.373Z,12.40
2019-02-23T10:20:15.389Z,13.20
2019-02-23T10:22:44.052Z,15.10
2019-02-23T10:25:12.743Z,16.40
2019-02-23T10:27:41.476Z,16.70
2019-02-23T10:30:15.556Z,15.40
2019-02-23T10:32:44.227Z,14.10
2019-02-23T10:35:13.940Z,14.40
2019-02-23T10:37:42.469Z,14.30
2019-02-23T10:40:12.199Z,14.30
2019-02-23T10:42:40.744Z,14.40
2019-02-23T10:45:11.542Z,14.10
2019-02-23T10:47:40.172Z,15.00
2019-02-23T10:50:10.820Z,15.20
2019-02-23T10:52:39.527Z,15.50
2019-02-23T10:55:11.297Z,15.50
2019-02-23T10:57:40.223Z,14.70
2019-02-23T11:00:18.683Z,14.40
2019-02-23T11:02:47.254Z,15.90
2019-02-23T11:05:16.240Z,17.50
2019-02-23T11:07:45.056Z,17.40
2019-02-23T11:10:14.215Z,16.00
2019-02-23T11:12:42.932Z,15.90
2019-02-23T11:15:13.121Z,15.10
2019-02-23T11:17:41.713Z,16.10
2019-02-23T11:20:11.500Z,16.20
2019-02-23T11:22:40.264Z,15.90
2019-02-23T11:25:10.865Z,15.90
2019-02-23T11:27:39.496Z,15.30
2019-02-23T11:30:11.002Z,15.40
2019-02-23T11:32:39.554Z,15.50
2019-02-23T11:35:11.168Z,14.60
2019-02-23T11:37:39.898Z,14.10
2019-02-23T11:40:10.909Z,13.50
2019-02-23T11:42:39.584Z,12.90
2019-02-23T11:45:09.804Z,11.70
2019-02-23T11:47:38.356Z,10.90
2019-02-23T11:50:09.576Z,10.60
2019-02-23T11:52:39.468Z,10.00
2019-02-23T11:55:08.560Z,9.80
2019-02-23T11:57:37.177Z,9.90
2019-02-23T12:00:13.625Z,10.00
2019-02-23T12:02:51.992Z,9.90
2019-02-23T12:05:13.016Z,9.70
2019-02-23T12:07:41.576Z,10.10
2019-02-23T12:10:12.776Z,9.80
2019-02-23T12:12:41.612Z,9.30
2019-02-23T12:15:10.509Z,9.30
2019-02-23T12:17:39.165Z,9.60
2019-02-23T12:20:09.716Z,10.00
2019-02-23T12:22:38.297Z,10.50
2019-02-23T12:25:07.793Z,10.70
2019-02-23T12:27:36.364Z,10.50
2019-02-23T12:30:10.207Z,10.60
2019-02-23T12:32:38.812Z,9.80
2019-02-23T12:35:09.911Z,9.30
2019-02-23T12:37:38.748Z,9.00
2019-02-23T12:40:09.449Z,9.00
2019-02-23T12:42:38.033Z,9.10
2019-02-23T12:45:10.038Z,9.10
2019-02-23T12:47:38.595Z,9.20
2019-02-23T12:50:12.044Z,9.00
2019-02-23T12:52:40.964Z,8.70
2019-02-23T12:55:11.083Z,8.80
2019-02-23T12:57:39.634Z,8.90
2019-02-23T13:00:16.848Z,8.70
2019-02-23T13:02:45.413Z,8.60
2019-02-23T13:05:14.326Z,8.50
2019-02-23T13:07:42.996Z,8.50
2019-02-23T13:10:13.004Z,8.50
2019-02-23T13:13:02.826Z,8.60
2019-02-23T13:15:43.520Z,8.50
2019-02-23T13:18:33.392Z,8.40
2019-02-23T13:21:05.051Z,8.50
2019-02-23T13:26:44.649Z,8.50
2019-02-23T13:29:19.426Z,8.70
2019-02-23T13:32:12.116Z,8.70
2019-02-23T13:34:43.772Z,8.70
2019-02-23T13:37:30.499Z,8.80
2019-02-23T13:40:27.780Z,8.80
2019-02-23T13:43:11.248Z,8.60
2019-02-23T13:45:54.968Z,8.50
2019-02-23T13:48:49.448Z,8.50
2019-02-23T13:51:23.865Z,8.50
2019-02-23T13:54:10.328Z,8.50
2019-02-23T13:56:41.953Z,8.30
2019-02-23T13:59:19.716Z,8.30
2019-02-23T14:01:59.680Z,8.40
2019-02-23T14:04:52.768Z,8.10
2019-02-23T14:07:44.124Z,8.10
2019-02-23T14:10:47.748Z,8.30
2019-02-23T14:13:26.083Z,8.40
2019-02-23T14:16:17.581Z,8.40
2019-02-23T14:18:52.232Z,8.40
2019-02-23T14:21:29.869Z,8.30
2019-02-23T14:24:20.656Z,8.40
2019-02-23T14:27:01.121Z,8.40
2019-02-23T14:29:41.359Z,8.30
2019-02-23T14:32:18.592Z,8.40
2019-02-23T14:34:55.992Z,8.40
2019-02-23T14:37:54.681Z,8.50
2019-02-23T14:40:34.518Z,8.60
2019-02-23T14:43:12.183Z,8.60
2019-02-23T14:46:08.428Z,8.60
2019-02-23T14:48:43.088Z,8.50
2019-02-23T14:51:29.923Z,8.40
2019-02-23T14:54:04.560Z,8.30
2019-02-23T14:56:39.313Z,8.20
2019-02-23T14:59:27.714Z,8.10
2019-02-23T15:02:33.123Z,8.10
2019-02-23T15:05:16.871Z,8.00
2019-02-23T15:08:00.445Z,8.00
2019-02-23T15:10:41.147Z,7.90
2019-02-23T15:13:15.801Z,7.90
2019-02-23T15:16:02.907Z,7.90
2019-02-23T15:18:37.229Z,7.80
2019-02-23T15:21:42.336Z,7.80
2019-02-23T15:24:13.972Z,7.80
2019-02-23T15:27:08.221Z,7.70
2019-02-23T15:29:49.058Z,7.60
2019-02-23T15:32:29.808Z,7.50
2019-02-23T15:35:25.588Z,7.50
2019-02-23T15:38:25.833Z,7.40
2019-02-23T15:41:29.316Z,7.30
2019-02-23T15:44:25.596Z,7.30
2019-02-23T15:47:22.505Z,7.30
2019-02-23T15:49:51.028Z,7.20
2019-02-23T15:52:19.632Z,7.20
2019-02-23T15:54:48.148Z,7.20
2019-02-23T15:57:16.740Z,7.20
2019-02-23T15:59:45.378Z,7.10
2019-02-23T16:02:14.583Z,7.00
2019-02-23T16:04:43.581Z,7.00
2019-02-23T16:07:12.487Z,7.00
2019-02-23T16:09:41.036Z,6.90
2019-02-23T16:12:09.610Z,6.90
2019-02-23T16:14:38.178Z,6.80
2019-02-23T16:17:06.896Z,6.70
2019-02-23T16:19:35.478Z,6.60
2019-02-23T16:22:04.024Z,6.50
2019-02-23T16:24:32.600Z,6.40
2019-02-23T16:27:01.155Z,6.30
2019-02-23T16:29:29.769Z,6.20
2019-02-23T16:31:58.327Z,6.20
2019-02-23T16:34:26.878Z,6.10
2019-02-23T16:36:55.450Z,6.00
2019-02-23T16:39:24.003Z,6.00
2019-02-23T16:41:52.657Z,5.90
2019-02-23T16:44:21.204Z,5.90
2019-02-23T16:46:49.773Z,5.90
2019-02-23T16:49:18.337Z,5.90
2019-02-23T16:51:46.903Z,5.80
2019-02-23T16:54:15.513Z,5.70
2019-02-23T16:56:44.044Z,5.70
2019-02-23T16:59:12.664Z,5.60
2019-02-23T17:01:41.321Z,5.60
2019-02-23T17:04:09.901Z,5.40
2019-02-23T17:06:38.452Z,5.40
2019-02-23T17:09:07.565Z,5.40
2019-02-23T17:11:36.176Z,5.30
2019-02-23T17:14:04.720Z,5.30
2019-02-23T17:16:33.273Z,5.30
2019-02-23T17:19:01.869Z,5.20
2019-02-23T17:21:30.507Z,5.10
2019-02-23T17:23:59.110Z,5.10
2019-02-23T17:26:27.649Z,5.00
2019-02-23T17:28:56.317Z,4.90
2019-02-23T17:31:24.880Z,4.90
2019-02-23T17:33:53.413Z,4.80
2019-02-23T17:36:21.989Z,4.70
2019-02-23T17:38:50.560Z,4.60
2019-02-23T17:41:19.134Z,4.60
2019-02-23T17:43:47.689Z,4.60
2019-02-23T17:46:16.260Z,4.50
2019-02-23T17:48:44.813Z,4.50
2019-02-23T17:51:13.391Z,4.50
2019-02-23T17:53:41.988Z,4.40
2019-02-23T17:56:12.599Z,4.40
2019-02-23T17:58:40.804Z,4.40
2019-02-23T18:01:09.335Z,4.40
2019-02-23T18:03:37.920Z,4.30
2019-02-23T18:06:06.775Z,4.30
2019-02-23T18:08:35.337Z,4.30
2019-02-23T18:11:03.992Z,4.30
2019-02-23T18:13:32.656Z,4.20
2019-02-23T18:16:01.211Z,4.20
2019-02-23T18:18:29.860Z,4.10
2019-02-23T18:20:58.404Z,4.10
2019-02-23T18:23:26.968Z,4.10
2019-02-23T18:25:55.537Z,4.10
2019-02-23T18:28:24.083Z,4.00
2019-02-23T18:30:52.667Z,4.10
2019-02-23T18:33:21.383Z,4.00
2019-02-23T18:35:49.961Z,3.90
2019-02-23T18:38:18.516Z,3.90
2019-02-23T18:40:47.084Z,3.80
2019-02-23T18:43:15.989Z,3.80
2019-02-23T18:45:47.349Z,3.80
2019-02-23T18:48:14.776Z,3.80
2019-02-23T18:50:43.328Z,3.70
2019-02-23T18:53:11.983Z,3.70
2019-02-23T18:55:41.430Z,3.70
2019-02-23T18:58:10.235Z,3.60
2019-02-23T19:00:38.862Z,3.60
2019-02-23T19:03:07.428Z,3.60
2019-02-23T19:05:36.047Z,3.60
2019-02-23T19:08:04.616Z,3.50
2019-02-23T19:10:33.233Z,3.60
2019-02-23T19:13:01.768Z,3.50
2019-02-23T19:15:30.383Z,3.60
2019-02-23T19:17:58.960Z,3.80
2019-02-23T19:20:27.520Z,3.80
2019-02-23T19:22:56.272Z,3.70
2019-02-23T19:25:24.826Z,3.60
2019-02-23T19:27:53.521Z,3.40
2019-02-23T19:30:22.144Z,3.30
2019-02-23T19:32:50.711Z,3.30
2019-02-23T19:35:19.292Z,3.20
2019-02-23T19:37:47.842Z,3.20
2019-02-23T19:40:16.483Z,3.10
2019-02-23T19:42:45.037Z,3.10
2019-02-23T19:45:13.609Z,3.10
2019-02-23T19:47:42.614Z,3.00
2019-02-23T19:50:14.199Z,3.00
2019-02-23T19:52:42.821Z,2.90
2019-02-23T19:55:14.657Z,2.90
2019-02-23T19:57:43.552Z,2.90
2019-02-23T20:00:12.264Z,2.90
2019-02-23T20:02:40.909Z,2.80
2019-02-23T20:05:10.670Z,2.80
2019-02-23T20:07:39.240Z,2.80
2019-02-23T20:10:10.240Z,2.80
2019-02-23T20:12:38.807Z,2.80
2019-02-23T20:15:09.402Z,2.70
2019-02-23T20:17:38.000Z,2.70
2019-02-23T20:20:07.592Z,2.60
2019-02-23T20:22:36.163Z,2.60
2019-02-23T20:25:06.775Z,2.50
2019-02-23T20:27:35.328Z,2.50
2019-02-23T20:30:05.487Z,2.40
2019-02-23T20:32:34.405Z,2.40
2019-02-23T20:35:02.980Z,2.40
2019-02-23T20:37:31.529Z,2.40
2019-02-23T20:40:00.434Z,2.40
2019-02-23T20:42:29.100Z,2.30
2019-02-23T20:44:57.645Z,2.30
2019-02-23T20:47:26.221Z,2.30
2019-02-23T20:49:54.868Z,2.20
2019-02-23T20:52:23.440Z,2.20
2019-02-23T20:54:52.019Z,2.20
2019-02-23T20:57:20.599Z,2.20
2019-02-23T20:59:49.516Z,2.20
2019-02-23T21:02:18.096Z,2.10
2019-02-23T21:04:46.653Z,2.10
2019-02-23T21:07:15.528Z,2.10
2019-02-23T21:09:44.081Z,2.10
2019-02-23T21:12:12.632Z,2.10
2019-02-23T21:14:41.208Z,2.00
2019-02-23T21:17:09.812Z,2.00
2019-02-23T21:19:38.442Z,2.00
2019-02-23T21:22:07.066Z,2.00
2019-02-23T21:24:35.639Z,2.00
2019-02-23T21:27:12.656Z,2.00
2019-02-23T21:29:34.417Z,1.90
2019-02-23T21:32:03.040Z,1.90
2019-02-23T21:34:31.731Z,1.90
2019-02-23T21:37:00.628Z,2.00
2019-02-23T21:39:29.324Z,2.00
2019-02-23T21:41:57.957Z,1.90
2019-02-23T21:44:26.457Z,1.90
2019-02-23T21:46:55.032Z,1.80
2019-02-23T21:49:23.772Z,1.80
2019-02-23T21:51:52.434Z,1.80
2019-02-23T21:54:20.989Z,1.80
2019-02-23T21:56:49.545Z,1.70
2019-02-23T21:59:18.104Z,1.60
2019-02-23T22:01:46.676Z,1.60
2019-02-23T22:04:15.281Z,1.60
2019-02-23T22:06:43.808Z,1.60
2019-02-23T22:09:12.363Z,1.60
2019-02-23T22:11:40.909Z,1.50
2019-02-23T22:14:09.572Z,1.60
2019-02-23T22:16:39.104Z,1.60
2019-02-23T22:19:07.682Z,1.60
2019-02-23T22:21:36.239Z,1.60
2019-02-23T22:24:05.197Z,1.60
2019-02-23T22:26:33.827Z,1.60
2019-02-23T22:29:02.745Z,1.60
2019-02-23T22:31:31.295Z,1.50
2019-02-23T22:33:59.864Z,1.50
2019-02-23T22:36:28.424Z,1.50
2019-02-23T22:38:56.976Z,1.50
2019-02-23T22:41:25.657Z,1.50
2019-02-23T22:43:54.216Z,1.50
2019-02-23T22:46:22.792Z,1.50
2019-02-23T22:48:51.349Z,1.60
2019-02-23T22:51:19.925Z,1.60
2019-02-23T22:53:48.476Z,1.70
2019-02-23T22:56:17.067Z,1.70
2019-02-23T22:58:45.628Z,1.60
2019-02-23T23:01:14.579Z,1.60
2019-02-23T23:03:43.183Z,1.50
2019-02-23T23:06:11.723Z,1.50
2019-02-23T23:08:40.292Z,1.50
2019-02-23T23:11:08.842Z,1.50
2019-02-23T23:13:37.413Z,1.50
2019-02-23T23:16:05.970Z,1.50
2019-02-23T23:18:34.539Z,1.60
2019-02-23T23:21:03.089Z,1.60
2019-02-23T23:23:31.667Z,1.50
2019-02-23T23:26:00.561Z,1.50
2019-02-23T23:28:29.144Z,1.60
2019-02-23T23:30:57.701Z,1.60
2019-02-23T23:33:26.261Z,1.60
2019-02-23T23:35:55.156Z,1.60
2019-02-23T23:38:23.711Z,1.60
2019-02-23T23:40:52.355Z,1.70
2019-02-23T23:43:21.247Z,1.70
2019-02-23T23:45:49.821Z,1.70
2019-02-23T23:48:18.700Z,1.80
2019-02-23T23:50:47.276Z,1.70
2019-02-23T23:53:15.827Z,1.70
2019-02-23T23:55:44.392Z,1.70
2019-02-23T23:58:12.948Z,1.70
